createdAt,value
2018-02-19T00:01:20.967Z,16.87
2018-02-19T00:03:48.546Z,19.60
2018-02-19T00:06:16.174Z,21.70
2018-02-19T00:08:43.758Z,21.80
2018-02-19T00:11:11.338Z,21.37
2018-02-19T00:13:38.922Z,21.08
2018-02-19T00:16:07.271Z,21.75
2018-02-19T00:18:34.863Z,23.50
2018-02-19T00:21:03.201Z,20.55
2018-02-19T00:23:30.788Z,23.00
2018-02-19T00:25:58.410Z,17.95
2018-02-19T00:28:25.987Z,19.80
2018-02-19T00:30:53.566Z,25.35
2018-02-19T00:33:21.155Z,19.83
2018-02-19T00:35:48.782Z,20.80
2018-02-19T00:38:16.363Z,25.92
2018-02-19T00:40:44.394Z,28.15
2018-02-19T00:43:12.043Z,25.23
2018-02-19T00:45:40.402Z,19.70
2018-02-19T00:48:08.005Z,20.45
2018-02-19T00:50:35.590Z,25.60
2018-02-19T00:53:03.175Z,24.37
2018-02-19T00:55:30.758Z,20.15
2018-02-19T00:57:58.336Z,22.17
2018-02-19T01:00:25.914Z,21.25
2018-02-19T01:02:54.267Z,17.37
2018-02-19T01:05:21.851Z,20.90
2018-02-19T01:07:49.451Z,23.40
2018-02-19T01:10:17.038Z,25.42
2018-02-19T01:12:44.667Z,26.23
2018-02-19T01:15:13.070Z,28.27
2018-02-19T01:17:40.659Z,25.42
2018-02-19T01:20:08.246Z,24.75
2018-02-19T01:22:35.874Z,23.70
2018-02-19T01:25:03.468Z,29.77
2018-02-19T01:27:31.055Z,25.75
2018-02-19T01:29:59.407Z,26.05
2018-02-19T01:32:26.993Z,29.17
2018-02-19T01:34:54.583Z,20.62
2018-02-19T01:37:22.979Z,22.10
2018-02-19T01:39:50.559Z,25.08
2018-02-19T01:42:18.146Z,24.23
2018-02-19T01:44:45.751Z,22.80
2018-02-19T01:47:14.098Z,25.00
2018-02-19T01:49:53.503Z,19.33
2018-02-19T01:52:21.123Z,25.42
2018-02-19T01:54:48.758Z,23.50
2018-02-19T01:57:16.344Z,23.83
2018-02-19T01:59:43.926Z,21.35
2018-02-19T02:02:12.274Z,21.83
2018-02-19T02:04:40.631Z,25.40
2018-02-19T02:07:08.210Z,23.60
2018-02-19T02:09:35.795Z,28.60
2018-02-19T02:12:03.407Z,21.40
2018-02-19T02:14:30.995Z,27.08
2018-02-19T02:16:58.578Z,33.60
2018-02-19T02:19:26.163Z,27.25
2018-02-19T02:21:53.754Z,30.58
2018-02-19T02:24:22.114Z,25.33
2018-02-19T02:26:49.718Z,23.08
2018-02-19T02:29:17.312Z,29.30
2018-02-19T02:31:44.899Z,29.98
2018-02-19T02:34:12.491Z,24.95
2018-02-19T02:36:40.838Z,27.10
2018-02-19T02:39:08.424Z,27.60
2018-02-19T02:41:36.011Z,22.35
2018-02-19T02:44:03.594Z,21.30
2018-02-19T02:46:31.227Z,26.98
2018-02-19T02:48:59.642Z,21.25
2018-02-19T02:51:27.247Z,21.87
2018-02-19T02:53:54.830Z,25.88
2018-02-19T02:56:22.480Z,28.52
2018-02-19T02:58:50.071Z,28.98
2018-02-19T03:01:18.427Z,33.88
2018-02-19T03:03:46.012Z,33.15
2018-02-19T03:06:14.367Z,33.55
2018-02-19T03:08:42.002Z,26.10
2018-02-19T03:11:09.570Z,25.77
2018-02-19T03:13:37.158Z,25.92
2018-02-19T03:16:04.746Z,23.95
2018-02-19T03:18:32.327Z,25.70
2018-02-19T03:21:00.675Z,32.05
2018-02-19T03:23:28.294Z,29.90
2018-02-19T03:25:55.948Z,40.95
2018-02-19T03:28:24.299Z,24.45
2018-02-19T03:30:51.990Z,30.23
2018-02-19T03:33:20.348Z,29.55
2018-02-19T03:35:48.098Z,34.28
2018-02-19T03:38:15.695Z,28.95
2018-02-19T03:40:43.279Z,27.37
2018-02-19T03:43:11.626Z,32.05
2018-02-19T03:45:39.259Z,25.52
2018-02-19T03:48:06.890Z,31.75
2018-02-19T03:50:35.268Z,22.98
2018-02-19T03:53:03.623Z,28.90
2018-02-19T03:55:31.244Z,29.40
2018-02-19T03:57:58.862Z,27.27
2018-02-19T04:00:26.844Z,26.73
2018-02-19T04:02:54.470Z,33.85
2018-02-19T04:05:22.058Z,30.50
2018-02-19T04:07:49.643Z,38.47
2018-02-19T04:10:17.994Z,39.58
2018-02-19T04:12:45.574Z,47.70
2018-02-19T04:15:13.206Z,40.33
2018-02-19T04:17:40.823Z,34.88
2018-02-19T04:20:09.174Z,33.72
2018-02-19T04:22:36.757Z,33.67
2018-02-19T04:25:04.358Z,28.52
2018-02-19T04:27:31.942Z,41.20
2018-02-19T04:29:59.530Z,35.63
2018-02-19T04:32:27.114Z,33.65
2018-02-19T04:34:54.699Z,28.48
2018-02-19T04:37:23.106Z,41.08
2018-02-19T04:39:50.686Z,43.25
2018-02-19T04:42:18.286Z,39.80
2018-02-19T04:45:01.451Z,31.87
2018-02-19T04:47:29.039Z,30.33
2018-02-19T04:49:56.627Z,24.02
2018-02-19T04:52:24.214Z,25.40
2018-02-19T04:54:51.804Z,31.40
2018-02-19T04:57:19.386Z,26.15
2018-02-19T04:59:46.975Z,25.05
2018-02-19T05:02:14.558Z,23.10
2018-02-19T05:04:42.151Z,28.55
2018-02-19T05:07:10.503Z,27.75
2018-02-19T05:09:38.143Z,34.05
2018-02-19T05:12:05.722Z,22.67
2018-02-19T05:14:33.311Z,24.50
2018-02-19T05:17:00.944Z,16.73
2018-02-19T05:19:28.531Z,28.05
2018-02-19T05:21:56.124Z,23.45
2018-02-19T05:24:24.478Z,26.80
2018-02-19T05:26:52.061Z,40.40
2018-02-19T05:29:20.431Z,27.50
2018-02-19T05:31:48.027Z,23.45
2018-02-19T05:34:15.620Z,20.77
2018-02-19T05:36:43.203Z,23.40
2018-02-19T05:39:10.863Z,35.33
2018-02-19T05:41:38.454Z,19.58
2018-02-19T05:44:06.040Z,26.05
2018-02-19T05:46:34.399Z,24.30
2018-02-19T05:49:01.982Z,27.50
2018-02-19T05:51:30.523Z,29.37
2018-02-19T05:53:58.113Z,29.60
2018-02-19T05:56:25.793Z,28.12
2018-02-19T05:58:53.423Z,31.48
2018-02-19T06:01:21.011Z,33.55
2018-02-19T06:03:48.883Z,33.28
2018-02-19T06:06:16.475Z,28.70
2018-02-19T06:08:44.829Z,30.45
2018-02-19T06:11:12.414Z,26.40
2018-02-19T06:13:40.858Z,28.25
2018-02-19T06:16:08.438Z,32.60
2018-02-19T06:18:36.041Z,27.77
2018-02-19T06:21:03.722Z,28.95
2018-02-19T06:23:31.311Z,29.65
2018-02-19T06:25:58.903Z,26.50
2018-02-19T06:28:26.490Z,34.83
2018-02-19T06:30:54.839Z,30.45
2018-02-19T06:33:22.431Z,29.15
2018-02-19T06:35:50.020Z,26.87
2018-02-19T06:38:17.601Z,35.00
2018-02-19T06:40:45.272Z,34.80
2018-02-19T06:43:12.819Z,38.63
2018-02-19T06:45:40.402Z,37.47
2018-02-19T06:48:07.987Z,42.33
2018-02-19T06:50:35.575Z,44.15
2018-02-19T06:53:03.239Z,40.70
2018-02-19T06:55:30.827Z,42.75
2018-02-19T06:57:58.619Z,37.75
2018-02-19T07:00:26.318Z,39.45
2018-02-19T07:02:53.902Z,38.47
2018-02-19T07:05:21.503Z,34.75
2018-02-19T07:07:49.174Z,38.20
2018-02-19T07:10:16.762Z,33.20
2018-02-19T07:12:44.352Z,30.73
2018-02-19T07:15:11.936Z,35.60
2018-02-19T07:17:40.294Z,35.78
2018-02-19T07:20:07.907Z,36.88
2018-02-19T07:22:36.286Z,38.75
2018-02-19T07:25:04.746Z,39.22
2018-02-19T07:27:32.311Z,42.00
2018-02-19T07:29:59.890Z,44.38
2018-02-19T07:32:28.238Z,38.25
2018-02-19T07:34:55.826Z,35.03
2018-02-19T07:37:23.483Z,39.78
2018-02-19T07:39:51.067Z,40.72
2018-02-19T07:42:18.721Z,40.72
2018-02-19T07:44:46.308Z,38.25
2018-02-19T07:47:14.658Z,40.38
2018-02-19T07:49:42.239Z,38.85
2018-02-19T07:52:10.607Z,37.88
2018-02-19T07:54:38.190Z,43.50
2018-02-19T07:57:06.547Z,41.10
2018-02-19T07:59:34.149Z,37.13
2018-02-19T08:02:02.494Z,37.58
2018-02-19T08:04:30.078Z,38.40
2018-02-19T08:06:57.663Z,36.83
2018-02-19T08:09:26.163Z,43.75
2018-02-19T08:11:53.746Z,35.10
2018-02-19T08:14:21.334Z,40.95
2018-02-19T08:16:48.922Z,33.90
2018-02-19T08:19:16.558Z,37.33
2018-02-19T08:21:44.138Z,35.40
2018-02-19T08:24:11.730Z,35.10
2018-02-19T08:26:40.155Z,36.88
2018-02-19T08:29:07.742Z,40.55
2018-02-19T08:31:35.381Z,37.70
2018-02-19T08:34:02.971Z,40.50
2018-02-19T08:36:30.560Z,37.70
2018-02-19T08:38:58.149Z,31.15
2018-02-19T08:41:25.777Z,32.20
2018-02-19T08:43:53.350Z,33.92
2018-02-19T08:46:20.930Z,35.20
2018-02-19T08:48:49.278Z,37.47
2018-02-19T08:51:16.865Z,32.83
2018-02-19T08:53:44.462Z,39.13
2018-02-19T08:56:12.042Z,34.05
2018-02-19T08:58:39.627Z,33.10
2018-02-19T09:01:07.226Z,38.00
2018-02-19T09:03:34.815Z,30.88
2018-02-19T09:06:02.410Z,36.67
2018-02-19T09:08:29.991Z,35.40
2018-02-19T09:10:57.575Z,32.90
2018-02-19T09:13:25.187Z,39.75
2018-02-19T09:15:52.783Z,34.95
2018-02-19T09:18:20.370Z,31.50
2018-02-19T09:20:47.958Z,29.37
2018-02-19T09:23:15.588Z,36.35
2018-02-19T09:25:43.173Z,24.52
2018-02-19T09:28:10.755Z,29.70
2018-02-19T09:30:39.107Z,31.10
2018-02-19T09:33:06.687Z,34.15
2018-02-19T09:35:34.266Z,27.08
2018-02-19T09:38:02.619Z,26.85
2018-02-19T09:40:30.203Z,28.65
2018-02-19T09:42:58.552Z,30.95
2018-02-19T09:45:26.198Z,26.95
2018-02-19T09:47:53.783Z,28.80
2018-02-19T09:50:21.362Z,30.08
2018-02-19T09:52:48.950Z,28.00
2018-02-19T09:55:16.594Z,24.58
2018-02-19T09:57:44.179Z,27.13
2018-02-19T10:00:12.531Z,26.45
2018-02-19T10:02:40.119Z,25.45
2018-02-19T10:05:07.703Z,28.95
2018-02-19T10:07:35.327Z,26.12
2018-02-19T10:10:02.939Z,32.25
2018-02-19T10:12:30.523Z,30.25
2018-02-19T10:14:58.101Z,27.58
2018-02-19T10:17:25.714Z,27.10
2018-02-19T10:19:54.071Z,24.70
2018-02-19T10:22:21.651Z,23.40
2018-02-19T10:24:49.239Z,26.40
2018-02-19T10:27:17.582Z,24.55
2018-02-19T10:29:45.206Z,27.00
2018-02-19T10:32:12.803Z,30.85
2018-02-19T10:34:40.387Z,24.65
2018-02-19T10:37:07.970Z,24.48
2018-02-19T10:39:36.365Z,24.15
2018-02-19T10:42:03.923Z,26.90
2018-02-19T10:44:31.507Z,27.65
2018-02-19T10:46:59.102Z,22.62
2018-02-19T10:49:26.686Z,18.73
2018-02-19T10:51:54.307Z,17.83
2018-02-19T10:54:21.904Z,22.60
2018-02-19T10:56:49.484Z,20.75
2018-02-19T10:59:17.072Z,24.08
2018-02-19T11:01:44.674Z,23.30
2018-02-19T11:04:19.039Z,24.20
2018-02-19T11:06:46.623Z,21.10
2018-02-19T11:09:15.011Z,25.45
2018-02-19T11:11:43.394Z,24.05
2018-02-19T11:14:11.739Z,19.45
2018-02-19T11:16:39.327Z,26.05
2018-02-19T11:19:06.905Z,25.45
2018-02-19T11:21:34.586Z,21.35
2018-02-19T11:24:02.177Z,26.83
2018-02-19T11:26:29.775Z,28.48
2018-02-19T11:28:57.402Z,23.98
2018-02-19T11:31:24.983Z,24.87
2018-02-19T11:33:52.568Z,26.65
2018-02-19T11:36:20.155Z,27.90
2018-02-19T11:38:55.378Z,27.95
2018-02-19T11:41:16.907Z,26.83
2018-02-19T11:43:44.535Z,31.35
2018-02-19T11:46:12.119Z,30.20
2018-02-19T11:48:39.701Z,28.20
2018-02-19T11:51:07.298Z,35.05
2018-02-19T11:53:34.954Z,29.42
2018-02-19T11:56:02.538Z,29.52
2018-02-19T11:58:30.124Z,33.10
2018-02-19T12:00:57.703Z,27.87
2018-02-19T12:03:25.297Z,30.27
2018-02-19T12:05:53.644Z,29.33
2018-02-19T12:08:21.227Z,32.15
2018-02-19T12:10:48.807Z,27.25
2018-02-19T12:13:16.383Z,27.08
2018-02-19T12:15:43.962Z,27.27
2018-02-19T12:18:11.544Z,27.87
2018-02-19T12:20:39.122Z,27.08
2018-02-19T12:23:06.699Z,27.08
2018-02-19T12:25:34.282Z,29.23
2018-02-19T12:28:01.866Z,30.27
2018-02-19T12:30:30.211Z,28.75
2018-02-19T12:32:57.796Z,29.37
2018-02-19T12:35:25.375Z,27.50
2018-02-19T12:37:53.728Z,28.12
2018-02-19T12:40:21.326Z,30.90
2018-02-19T12:42:49.694Z,25.80
2018-02-19T12:45:18.058Z,26.67
2018-02-19T12:47:45.640Z,28.98
2018-02-19T12:50:13.232Z,20.83
2018-02-19T12:52:40.811Z,26.50
2018-02-19T12:55:08.390Z,25.67
2018-02-19T12:57:36.015Z,26.05
2018-02-19T13:00:03.619Z,26.80
2018-02-19T13:02:31.284Z,27.50
2018-02-19T13:04:58.873Z,31.37
2018-02-19T13:07:27.267Z,21.77
2018-02-19T13:09:54.859Z,23.70
2018-02-19T13:12:22.448Z,26.67
2018-02-19T13:14:50.055Z,22.50
2018-02-19T13:17:17.643Z,26.48
2018-02-19T13:19:45.227Z,23.95
2018-02-19T13:22:12.818Z,23.60
2018-02-19T13:24:40.409Z,29.73
2018-02-19T13:27:07.986Z,26.90
2018-02-19T13:29:35.571Z,26.70
2018-02-19T13:32:03.952Z,25.62
2018-02-19T13:34:31.587Z,24.63
2018-02-19T13:36:59.162Z,23.98
2018-02-19T13:39:26.746Z,28.27
2018-02-19T13:41:54.326Z,24.42
2018-02-19T13:44:22.674Z,22.98
2018-02-19T13:46:50.259Z,32.50
2018-02-19T13:49:18.607Z,28.77
2018-02-19T13:51:46.187Z,28.33
2018-02-19T13:54:13.771Z,27.80
2018-02-19T13:56:42.122Z,28.45
2018-02-19T13:59:09.701Z,32.25
2018-02-19T14:01:37.282Z,26.08
2018-02-19T14:04:04.863Z,29.37
2018-02-19T14:06:33.211Z,27.58
2018-02-19T14:09:00.792Z,24.70
2018-02-19T14:11:29.162Z,31.70
2018-02-19T14:13:56.754Z,29.75
2018-02-19T14:16:24.343Z,31.77
2018-02-19T14:18:51.930Z,31.70
2018-02-19T14:21:19.559Z,30.00
2018-02-19T14:23:47.138Z,32.03
2018-02-19T14:26:14.718Z,34.35
2018-02-19T14:28:42.311Z,28.85
2018-02-19T14:31:09.890Z,29.77
2018-02-19T14:33:37.501Z,32.33
2018-02-19T14:36:05.083Z,35.75
2018-02-19T14:38:32.662Z,34.20
2018-02-19T14:41:00.242Z,33.47
2018-02-19T14:43:27.827Z,38.38
2018-02-19T14:45:56.175Z,30.73
2018-02-19T14:48:23.755Z,29.87
2018-02-19T14:50:51.335Z,34.15
2018-02-19T14:53:19.683Z,39.38
2018-02-19T14:55:47.267Z,31.73
2018-02-19T14:58:14.855Z,31.40
2018-02-19T15:00:43.318Z,35.45
2018-02-19T15:03:10.898Z,33.75
2018-02-19T15:05:39.246Z,38.33
2018-02-19T15:08:06.835Z,29.40
2018-02-19T15:10:35.187Z,29.12
2018-02-19T15:13:02.771Z,32.40
2018-02-19T15:15:30.355Z,27.98
2018-02-19T15:17:58.698Z,33.20
2018-02-19T15:20:26.279Z,34.58
2018-02-19T15:22:53.863Z,32.97
2018-02-19T15:25:22.235Z,30.73
2018-02-19T15:27:49.827Z,25.17
2018-02-19T15:30:17.406Z,33.38
2018-02-19T15:32:44.992Z,28.33
2018-02-19T15:35:12.575Z,24.73
2018-02-19T15:37:40.159Z,33.47
2018-02-19T15:40:07.738Z,34.70
2018-02-19T15:42:36.091Z,34.30
2018-02-19T15:45:03.675Z,40.00
2018-02-19T15:47:32.041Z,36.40
2018-02-19T15:49:59.623Z,33.03
2018-02-19T15:52:27.975Z,35.90
2018-02-19T15:54:55.559Z,31.15
2018-02-19T15:57:23.394Z,36.75
2018-02-19T15:59:51.003Z,28.77
2018-02-19T16:02:18.694Z,25.52
2018-02-19T16:04:46.334Z,30.20
2018-02-19T16:07:13.971Z,27.25
2018-02-19T16:09:41.531Z,32.47
2018-02-19T16:12:09.110Z,29.60
2018-02-19T16:14:36.699Z,29.17
2018-02-19T16:17:05.048Z,24.35
2018-02-19T16:19:32.631Z,26.80
2018-02-19T16:22:00.224Z,27.87
2018-02-19T16:24:28.583Z,27.83
2018-02-19T16:26:56.175Z,23.55
2018-02-19T16:29:23.763Z,24.40
2018-02-19T16:31:51.347Z,27.37
2018-02-19T16:34:18.966Z,31.80
2018-02-19T16:36:46.555Z,35.75
2018-02-19T16:39:14.147Z,31.87
2018-02-19T16:41:41.729Z,28.60
2018-02-19T16:44:09.324Z,32.55
2018-02-19T16:46:37.727Z,32.92
2018-02-19T16:49:05.327Z,32.90
2018-02-19T16:51:32.921Z,50.42
2018-02-19T16:54:00.506Z,51.97
2018-02-19T16:56:28.095Z,61.28
2018-02-19T16:58:55.686Z,66.70
2018-02-19T17:01:23.365Z,44.15
2018-02-19T17:03:50.935Z,34.03
2018-02-19T17:06:18.522Z,37.90
2018-02-19T17:08:46.880Z,43.30
2018-02-19T17:11:14.480Z,41.00
2018-02-19T17:13:42.078Z,32.47
2018-02-19T17:16:09.684Z,33.25
2018-02-19T17:18:37.286Z,30.85
2018-02-19T17:21:04.894Z,35.05
2018-02-19T17:23:33.291Z,39.10
2018-02-19T17:26:01.663Z,36.83
2018-02-19T17:28:29.273Z,40.20
2018-02-19T17:30:56.857Z,31.87
2018-02-19T17:33:24.444Z,35.20
2018-02-19T17:35:52.868Z,36.58
2018-02-19T17:38:21.238Z,29.45
2018-02-19T17:40:48.836Z,36.95
2018-02-19T17:43:16.427Z,34.60
2018-02-19T17:45:44.241Z,37.17
2018-02-19T17:48:11.856Z,42.03
2018-02-19T17:50:39.446Z,43.47
2018-02-19T17:53:07.046Z,51.60
2018-02-19T17:55:35.403Z,61.85
2018-02-19T17:58:02.994Z,51.42
2018-02-19T18:00:30.596Z,52.08
2018-02-19T18:02:58.227Z,41.58
2018-02-19T18:05:26.586Z,36.78
2018-02-19T18:07:54.175Z,39.20
2018-02-19T18:10:22.831Z,37.88
2018-02-19T18:12:50.436Z,35.50
2018-02-19T18:15:18.793Z,32.63
2018-02-19T18:17:46.388Z,34.13
2018-02-19T18:20:13.980Z,37.78
2018-02-19T18:22:41.610Z,43.15
2018-02-19T18:25:09.967Z,36.88
2018-02-19T18:27:37.560Z,37.58
2018-02-19T18:30:05.155Z,35.67
2018-02-19T18:32:32.794Z,40.42
2018-02-19T18:35:00.415Z,41.75
2018-02-19T18:37:28.018Z,45.08
2018-02-19T18:39:56.374Z,50.22
2018-02-19T18:42:23.966Z,39.78
2018-02-19T18:44:52.322Z,41.22
2018-02-19T18:47:19.935Z,46.95
2018-02-19T18:49:47.538Z,48.13
2018-02-19T18:52:15.134Z,40.33
2018-02-19T18:54:42.729Z,44.42
2018-02-19T18:57:10.326Z,40.20
2018-02-19T18:59:37.920Z,41.28
2018-02-19T19:02:05.515Z,45.50
2018-02-19T19:04:33.103Z,43.55
2018-02-19T19:07:00.700Z,50.05
2018-02-19T19:09:40.110Z,41.13
2018-02-19T19:12:07.710Z,42.85
2018-02-19T19:14:35.298Z,50.60
2018-02-19T19:17:03.652Z,52.58
2018-02-19T19:19:31.276Z,48.72
2018-02-19T19:21:58.871Z,44.75
2018-02-19T19:24:26.507Z,46.67
2018-02-19T19:26:54.115Z,43.50
2018-02-19T19:29:21.707Z,45.88
2018-02-19T19:31:50.091Z,50.75
2018-02-19T19:34:17.735Z,48.15
2018-02-19T19:36:45.319Z,55.50
2018-02-19T19:39:13.674Z,50.25
2018-02-19T19:41:41.259Z,42.33
2018-02-19T19:44:09.618Z,42.83
2018-02-19T19:46:37.246Z,46.95
2018-02-19T19:49:04.836Z,39.92
2018-02-19T19:51:32.430Z,50.33
2018-02-19T19:54:00.035Z,64.62
2018-02-19T19:56:27.630Z,57.85
2018-02-19T19:58:55.223Z,67.87
2018-02-19T20:01:22.816Z,63.87
2018-02-19T20:03:50.419Z,54.85
2018-02-19T20:06:18.008Z,57.42
2018-02-19T20:08:45.600Z,58.35
2018-02-19T20:11:13.952Z,63.13
2018-02-19T20:13:41.542Z,54.80
2018-02-19T20:16:09.171Z,61.75
2018-02-19T20:18:36.751Z,76.32
2018-02-19T20:21:04.338Z,64.62
2018-02-19T20:23:32.690Z,71.87
2018-02-19T20:26:00.275Z,62.72
2018-02-19T20:28:27.872Z,59.47
2018-02-19T20:30:55.460Z,65.03
2018-02-19T20:33:23.094Z,85.07
2018-02-19T20:35:50.696Z,82.18
2018-02-19T20:38:18.284Z,73.40
2018-02-19T20:40:45.875Z,95.62
2018-02-19T20:43:13.461Z,87.78
2018-02-19T20:45:41.052Z,102.70
2018-02-19T20:48:08.639Z,65.30
2018-02-19T20:50:36.222Z,64.12
2018-02-19T20:53:04.579Z,63.35
2018-02-19T20:55:32.179Z,70.62
2018-02-19T20:58:00.538Z,73.95
2018-02-19T21:00:28.131Z,59.53
2018-02-19T21:02:56.530Z,72.85
2018-02-19T21:05:24.117Z,67.85
2018-02-19T21:07:51.710Z,64.57
2018-02-19T21:10:19.299Z,65.53
2018-02-19T21:12:47.667Z,62.50
2018-02-19T21:15:15.262Z,63.78
2018-02-19T21:17:43.616Z,66.18
2018-02-19T21:20:11.246Z,62.75
2018-02-19T21:22:38.826Z,58.72
2018-02-19T21:25:06.435Z,65.80
2018-02-19T21:27:34.021Z,64.45
2018-02-19T21:30:01.643Z,64.72
2018-02-19T21:32:29.271Z,63.60
2018-02-19T21:34:56.867Z,62.67
2018-02-19T21:37:24.454Z,63.47
2018-02-19T21:39:52.822Z,66.57
2018-02-19T21:42:20.456Z,59.97
2018-02-19T21:44:48.038Z,55.92
2018-02-19T21:47:15.623Z,63.87
2018-02-19T21:49:43.210Z,58.50
2018-02-19T21:52:10.800Z,62.33
2018-02-19T21:54:38.406Z,57.42
2018-02-19T21:57:05.995Z,66.47
2018-02-19T21:59:33.584Z,73.18
2018-02-19T22:02:01.171Z,57.47
2018-02-19T22:04:28.826Z,68.85
2018-02-19T22:06:56.418Z,70.53
2018-02-19T22:09:24.012Z,69.45
2018-02-19T22:11:52.368Z,74.43
2018-02-19T22:14:19.954Z,59.45
2018-02-19T22:16:48.313Z,65.62
2018-02-19T22:19:15.947Z,66.82
2018-02-19T22:21:43.586Z,68.28
2018-02-19T22:24:11.198Z,66.95
2018-02-19T22:26:38.782Z,66.65
2018-02-19T22:29:06.378Z,72.37
2018-02-19T22:31:34.735Z,70.20
2018-02-19T22:34:02.335Z,68.30
2018-02-19T22:36:29.923Z,70.43
2018-02-19T22:38:57.514Z,66.47
2018-02-19T22:41:25.104Z,65.20
2018-02-19T22:43:52.691Z,64.00
2018-02-19T22:46:20.287Z,60.12
2018-02-19T22:48:47.875Z,76.22
2018-02-19T22:51:15.463Z,74.00
2018-02-19T22:53:43.822Z,66.30
2018-02-19T22:56:11.406Z,69.37
2018-02-19T22:58:39.043Z,69.15
2018-02-19T23:01:06.612Z,63.10
2018-02-19T23:03:34.207Z,68.32
2018-02-19T23:06:02.560Z,72.43
2018-02-19T23:08:30.147Z,71.62
2018-02-19T23:10:57.738Z,67.78
2018-02-19T23:13:25.324Z,64.43
2018-02-19T23:15:52.911Z,74.12
2018-02-19T23:18:20.522Z,67.82
2018-02-19T23:20:50.985Z,57.17
2018-02-19T23:23:19.462Z,60.88
2018-02-19T23:25:47.063Z,73.10
2018-02-19T23:28:14.716Z,68.35
2018-02-19T23:30:42.310Z,62.62
2018-02-19T23:33:09.898Z,58.72
2018-02-19T23:35:39.168Z,61.67
2018-02-19T23:38:06.826Z,69.97
2018-02-19T23:40:34.450Z,72.80
2018-02-19T23:43:02.039Z,74.87
2018-02-19T23:45:29.623Z,65.72
2018-02-19T23:47:57.213Z,68.18
2018-02-19T23:50:24.803Z,64.53
2018-02-19T23:52:52.422Z,62.10
2018-02-19T23:55:20.007Z,69.55
2018-02-19T23:57:47.655Z,64.55
